Time;durP1;ratioP1;P1;durP2;ratioP2;P2;SDS_P1;SDS_P2;PMS_P1;PMS_P2;Temp;Humidity;BMP_temperature;BMP_pressure;BME280_temperature;BME280_humidity;BME280_pressure;Samples;Min_cycle;Max_cycle;Signal;HPM_P1;HPM_P2
2022/09/11 00:00:52;;;;;;;1.40;0.70;;;13.50;99.90;;;;;;5070410;28;20445;-47
2022/09/11 00:03:20;;;;;;;1.30;0.70;;;13.60;99.90;;;;;;5070834;28;20450;-47
2022/09/11 00:05:47;;;;;;;3.13;0.90;;;13.70;99.90;;;;;;5070394;28;20537;-48
2022/09/11 00:08:16;;;;;;;1.87;0.80;;;13.50;99.90;;;;;;5070515;28;20451;-48
2022/09/11 00:10:44;;;;;;;1.50;0.70;;;13.50;99.90;;;;;;5070201;28;20424;-50
2022/09/11 00:13:14;;;;;;;2.00;1.00;;;13.60;99.90;;;;;;5071234;28;20479;-47
2022/09/11 00:15:42;;;;;;;1.87;0.77;;;13.80;99.90;;;;;;5071252;28;20464;-47
2022/09/11 00:18:13;;;;;;;1.27;0.70;;;13.60;99.90;;;;;;5070830;28;20448;-47
2022/09/11 00:20:48;;;;;;;1.50;0.70;;;13.60;99.90;;;;;;5070233;28;20857;-49
2022/09/11 00:23:16;;;;;;;1.57;0.60;;;13.50;99.90;;;;;;5070481;28;20237;-48
2022/09/11 00:25:45;;;;;;;2.00;0.68;;;13.40;99.90;;;;;;5070357;28;20530;-49
2022/09/11 00:28:14;;;;;;;2.80;0.80;;;13.20;99.90;;;;;;5070813;28;20281;-48
2022/09/11 00:30:42;;;;;;;1.30;0.73;;;13.10;99.90;;;;;;5069880;28;20522;-47
2022/09/11 00:33:11;;;;;;;1.30;0.80;;;13.20;99.90;;;;;;5070788;28;20949;-47
2022/09/11 00:35:38;;;;;;;1.40;0.80;;;13.20;99.90;;;;;;5070295;28;20466;-47
2022/09/11 00:38:07;;;;;;;1.30;0.80;;;13.20;99.90;;;;;;5070603;28;20195;-49
2022/09/11 00:40:34;;;;;;;2.17;1.03;;;13.30;99.90;;;;;;5069855;28;20835;-47
2022/09/11 00:43:02;;;;;;;1.98;0.70;;;13.30;99.90;;;;;;5070352;28;20997;-49
2022/09/11 00:45:28;;;;;;;2.40;0.77;;;13.20;99.90;;;;;;5069788;28;20226;-48
2022/09/11 00:47:58;;;;;;;1.20;0.60;;;13.30;99.90;;;;;;5070665;28;20874;-47
2022/09/11 00:50:31;;;;;;;1.40;0.63;;;13.20;99.90;;;;;;5069860;28;20441;-47
2022/09/11 00:53:01;;;;;;;1.90;0.83;;;13.30;99.90;;;;;;5074386;28;20541;-49
2022/09/11 00:55:34;;;;;;;1.70;0.70;;;13.40;99.90;;;;;;5073828;28;20513;-47
2022/09/11 00:58:05;;;;;;;1.10;0.50;;;13.60;99.90;;;;;;5073850;28;20443;-48
2022/09/11 01:00:32;;;;;;;1.30;0.77;;;13.60;99.90;;;;;;5073246;28;20506;-47
2022/09/11 01:03:00;;;;;;;1.00;0.40;;;13.40;99.90;;;;;;5074138;28;20437;-48
2022/09/11 01:05:33;;;;;;;5.33;0.80;;;13.40;99.90;;;;;;5073637;28;20472;-47
2022/09/11 01:08:02;;;;;;;2.60;0.70;;;13.10;99.90;;;;;;5072774;28;20518;-47
2022/09/11 01:10:37;;;;;;;1.40;0.70;;;13.10;99.90;;;;;;5073093;28;20439;-50
2022/09/11 01:13:16;;;;;;;2.40;1.50;;;13.40;99.90;;;;;;5073801;28;20444;-49
2022/09/11 01:15:52;;;;;;;1.50;0.70;;;13.40;99.90;;;;;;5073704;28;20537;-47
2022/09/11 01:18:26;;;;;;;2.37;0.90;;;13.50;99.90;;;;;;5073852;28;20540;-48
2022/09/11 01:21:15;;;;;;;2.83;1.00;;;13.50;99.90;;;;;;5073369;28;20610;-47
2022/09/11 01:24:14;;;;;;;1.73;0.63;;;13.30;99.90;;;;;;5073524;28;20497;-50
2022/09/11 01:27:07;;;;;;;2.30;0.73;;;13.20;99.90;;;;;;5073381;28;20487;-47
2022/09/11 01:29:41;;;;;;;1.47;0.73;;;13.30;99.90;;;;;;5072938;28;20449;-48
2022/09/11 01:32:14;;;;;;;1.00;0.50;;;13.40;99.90;;;;;;5073557;28;20447;-50
2022/09/11 01:34:46;;;;;;;1.67;0.63;;;13.10;99.90;;;;;;5073448;28;20448;-47
2022/09/11 01:37:18;;;;;;;2.00;0.80;;;13.20;99.90;;;;;;5073393;28;20501;-49
2022/09/11 01:39:52;;;;;;;1.80;0.73;;;13.00;99.90;;;;;;5072794;28;20453;-49
2022/09/11 01:42:22;;;;;;;3.97;1.10;;;12.40;99.90;;;;;;5073379;28;20196;-49
2022/09/11 01:44:53;;;;;;;1.77;0.87;;;12.10;99.90;;;;;;5073201;28;20972;-48
2022/09/11 01:47:22;;;;;;;1.90;0.90;;;12.10;99.90;;;;;;5072327;28;20523;-48
2022/09/11 01:49:53;;;;;;;1.67;1.00;;;12.10;99.90;;;;;;5072378;28;20456;-47
2022/09/11 01:52:26;;;;;;;2.00;1.20;;;12.10;99.90;;;;;;5072997;28;21020;-47
2022/09/11 01:54:58;;;;;;;1.30;1.10;;;12.20;99.90;;;;;;5073121;28;20468;-48
2022/09/11 01:57:30;;;;;;;2.80;0.80;;;12.50;99.90;;;;;;5073061;28;20914;-46
2022/09/11 02:00:02;;;;;;;1.63;1.00;;;12.80;99.90;;;;;;5072282;28;20476;-46
2022/09/11 02:02:34;;;;;;;1.20;0.80;;;13.10;99.90;;;;;;5073120;28;20926;-47
2022/09/11 02:05:09;;;;;;;1.40;0.70;;;13.10;99.90;;;;;;5073103;28;20578;-48
2022/09/11 02:07:41;;;;;;;1.20;0.80;;;12.90;99.90;;;;;;5071233;28;20472;-47
2022/09/11 02:10:13;;;;;;;1.60;0.80;;;13.00;99.90;;;;;;5072154;28;20436;-47
2022/09/11 02:12:45;;;;;;;2.00;0.93;;;13.10;99.90;;;;;;5072714;28;20441;-47
2022/09/11 02:15:15;;;;;;;1.20;0.80;;;13.00;99.90;;;;;;5072757;28;20513;-47
2022/09/11 02:17:49;;;;;;;1.67;0.77;;;12.90;99.90;;;;;;5072706;28;20843;-48
2022/09/11 02:20:16;;;;;;;2.10;0.90;;;12.70;99.90;;;;;;5071993;28;20821;-47
2022/09/11 02:22:43;;;;;;;2.37;1.00;;;12.80;99.90;;;;;;5072589;28;20821;-47
2022/09/11 02:25:12;;;;;;;2.47;1.00;;;13.00;99.90;;;;;;5072216;28;20912;-47
2022/09/11 02:27:40;;;;;;;1.73;1.00;;;13.00;99.90;;;;;;5072311;28;20498;-47
2022/09/11 02:30:08;;;;;;;1.87;0.80;;;13.00;99.90;;;;;;5072032;28;20471;-47
2022/09/11 02:32:40;;;;;;;1.70;1.10;;;12.80;99.90;;;;;;5072136;28;20536;-48
2022/09/11 02:35:09;;;;;;;1.63;0.77;;;13.00;99.90;;;;;;5072130;28;20518;-48
2022/09/11 02:37:48;;;;;;;1.93;0.93;;;12.90;99.90;;;;;;5072313;28;20845;-47
2022/09/11 02:40:45;;;;;;;1.30;0.70;;;13.00;99.90;;;;;;5071401;28;20976;-50
2022/09/11 02:43:32;;;;;;;2.33;1.00;;;13.10;99.90;;;;;;5048612;28;20509;-48
2022/09/11 02:46:22;;;;;;;1.93;1.30;;;13.20;99.90;;;;;;5071539;28;20961;-48
2022/09/11 02:49:02;;;;;;;2.90;1.07;;;13.30;99.90;;;;;;5069549;28;20452;-47
2022/09/11 02:51:36;;;;;;;1.37;1.00;;;13.40;99.90;;;;;;5072095;28;21003;-47
2022/09/11 02:54:13;;;;;;;1.67;0.90;;;13.50;99.90;;;;;;5071751;28;20466;-48
2022/09/11 02:56:46;;;;;;;1.60;0.83;;;13.50;99.90;;;;;;5071889;28;20510;-48
2022/09/11 02:59:17;;;;;;;1.40;1.20;;;13.20;99.90;;;;;;5071181;28;20492;-47
2022/09/11 03:01:50;;;;;;;1.73;0.82;;;13.00;99.90;;;;;;5071811;28;20433;-48
2022/09/11 03:04:21;;;;;;;2.30;1.20;;;13.10;99.90;;;;;;5071530;28;20202;-47
2022/09/11 03:06:48;;;;;;;2.57;1.50;;;12.90;99.90;;;;;;5071785;28;20602;-47
2022/09/11 03:09:16;;;;;;;6.90;1.92;;;13.00;99.90;;;;;;5069452;28;20454;-47
2022/09/11 03:11:43;;;;;;;2.63;2.00;;;13.00;99.90;;;;;;5071284;28;20202;-47
2022/09/11 03:14:10;;;;;;;2.27;1.60;;;13.20;99.90;;;;;;5070824;28;20535;-47
2022/09/11 03:16:37;;;;;;;2.93;1.70;;;13.20;99.90;;;;;;5071424;28;20488;-49
2022/09/11 03:19:05;;;;;;;2.60;1.80;;;13.20;99.90;;;;;;5070847;28;20811;-49
2022/09/11 03:21:33;;;;;;;2.25;1.40;;;13.30;99.90;;;;;;5071112;28;20499;-48
2022/09/11 03:24:00;;;;;;;3.10;1.40;;;13.30;99.90;;;;;;5071369;28;20194;-47
2022/09/11 03:26:28;;;;;;;2.60;1.30;;;13.30;99.90;;;;;;5071197;28;20559;-50
2022/09/11 03:28:55;;;;;;;1.30;1.10;;;13.40;99.90;;;;;;5070529;28;20873;-47
2022/09/11 03:31:22;;;;;;;1.30;1.10;;;13.30;99.90;;;;;;5071415;28;20218;-50
2022/09/11 03:33:49;;;;;;;2.30;1.40;;;13.30;99.90;;;;;;5071058;28;20502;-47
2022/09/11 03:36:16;;;;;;;2.87;1.30;;;13.30;99.90;;;;;;5071281;28;20468;-47
2022/09/11 03:38:44;;;;;;;2.43;1.20;;;13.30;99.90;;;;;;5070597;28;20432;-48
2022/09/11 03:41:12;;;;;;;3.30;1.70;;;13.30;99.90;;;;;;5071146;28;20449;-48
2022/09/11 03:43:38;;;;;;;2.20;1.47;;;13.00;99.90;;;;;;5070984;28;20466;-50
2022/09/11 03:46:06;;;;;;;1.80;1.50;;;12.90;99.90;;;;;;5070452;28;20452;-47
2022/09/11 03:48:33;;;;;;;2.50;2.10;;;12.80;99.90;;;;;;5071265;28;20433;-50
2022/09/11 03:51:00;;;;;;;3.50;1.73;;;13.10;99.90;;;;;;5070339;28;20441;-47
2022/09/11 03:53:27;;;;;;;3.40;1.50;;;13.10;99.90;;;;;;5070872;28;20490;-50
2022/09/11 03:55:55;;;;;;;2.47;1.53;;;13.30;99.90;;;;;;5071203;28;20857;-47
2022/09/11 03:58:22;;;;;;;3.30;1.40;;;13.30;99.90;;;;;;5070907;28;20526;-47
2022/09/11 04:00:49;;;;;;;1.37;1.07;;;13.10;99.90;;;;;;5070679;28;20472;-47
2022/09/11 04:03:16;;;;;;;1.70;0.80;;;13.10;99.90;;;;;;5070517;28;20953;-48
2022/09/11 04:05:55;;;;;;;1.30;0.70;;;13.10;99.90;;;;;;5070738;28;20453;-49
2022/09/11 04:08:22;;;;;;;1.10;0.80;;;13.20;99.90;;;;;;5069054;28;20440;-48
2022/09/11 04:10:49;;;;;;;2.87;1.00;;;13.30;99.90;;;;;;5070403;28;20433;-47
2022/09/11 04:13:17;;;;;;;1.67;1.00;;;13.20;99.90;;;;;;5070955;28;20486;-48
2022/09/11 04:15:44;;;;;;;1.70;0.80;;;13.30;99.90;;;;;;5070800;28;20882;-48
2022/09/11 04:18:11;;;;;;;1.70;0.93;;;13.00;99.90;;;;;;5070653;28;20437;-49
2022/09/11 04:20:39;;;;;;;1.30;0.70;;;12.40;99.90;;;;;;5069979;28;20502;-47
2022/09/11 04:23:06;;;;;;;1.42;0.90;;;12.40;99.90;;;;;;5071234;28;20443;-48
2022/09/11 04:25:33;;;;;;;2.57;1.00;;;12.70;99.90;;;;;;5070666;28;20624;-48
2022/09/11 04:28:00;;;;;;;1.23;0.70;;;12.90;99.90;;;;;;5075571;28;20834;-47
2022/09/11 04:30:29;;;;;;;1.50;1.00;;;13.20;99.90;;;;;;5073854;28;20432;-47
2022/09/11 04:32:56;;;;;;;1.50;0.97;;;13.10;99.90;;;;;;5074503;28;20957;-49
2022/09/11 04:35:22;;;;;;;2.03;0.90;;;13.20;99.90;;;;;;5074498;28;20468;-47
2022/09/11 04:37:49;;;;;;;2.03;1.30;;;13.20;99.90;;;;;;5074681;28;20848;-46
2022/09/11 04:40:17;;;;;;;2.80;1.07;;;13.00;99.90;;;;;;5074101;28;20940;-48
2022/09/11 04:42:44;;;;;;;1.90;1.00;;;13.00;99.90;;;;;;5074602;28;20502;-46
2022/09/11 04:45:11;;;;;;;2.03;1.00;;;12.90;99.90;;;;;;5073347;28;20519;-47
2022/09/11 04:47:39;;;;;;;1.20;0.93;;;12.90;99.90;;;;;;5074001;28;20222;-47
2022/09/11 04:50:07;;;;;;;2.30;1.17;;;13.10;99.90;;;;;;5074160;28;20668;-47
2022/09/11 04:52:34;;;;;;;3.27;1.10;;;13.10;99.90;;;;;;5075407;28;20516;-47
2022/09/11 04:55:01;;;;;;;1.90;0.97;;;13.10;99.90;;;;;;5074387;28;20592;-47
2022/09/11 04:57:30;;;;;;;2.13;0.90;;;13.20;99.90;;;;;;5074157;28;20937;-48
2022/09/11 04:59:57;;;;;;;1.30;0.83;;;13.20;99.90;;;;;;5073456;28;20429;-47
2022/09/11 05:02:24;;;;;;;2.10;1.00;;;13.10;99.90;;;;;;5074116;28;20441;-47
2022/09/11 05:04:52;;;;;;;1.50;1.10;;;13.00;99.90;;;;;;5073772;28;20551;-48
2022/09/11 05:07:19;;;;;;;1.63;1.15;;;13.10;99.90;;;;;;5073619;28;20649;-47
2022/09/11 05:09:47;;;;;;;1.47;0.93;;;12.90;99.90;;;;;;5071469;28;20243;-48
2022/09/11 05:12:14;;;;;;;1.60;1.00;;;12.80;99.90;;;;;;5074158;28;20886;-48
2022/09/11 05:14:41;;;;;;;3.93;1.10;;;12.90;99.90;;;;;;5073884;28;20772;-47
2022/09/11 05:17:08;;;;;;;5.03;1.10;;;12.90;99.90;;;;;;5073602;28;20457;-47
2022/09/11 05:19:35;;;;;;;2.33;0.93;;;13.00;99.90;;;;;;5073045;28;20484;-47
2022/09/11 05:22:04;;;;;;;2.40;0.97;;;13.10;99.90;;;;;;5073811;28;20452;-47
2022/09/11 05:24:31;;;;;;;2.17;0.93;;;13.10;99.90;;;;;;5073708;28;20467;-47
2022/09/11 05:26:58;;;;;;;1.30;0.80;;;13.10;99.90;;;;;;5073340;28;20690;-47
2022/09/11 05:29:28;;;;;;;2.70;1.70;;;13.10;99.90;;;;;;5072816;28;20484;-48
2022/09/11 05:31:57;;;;;;;2.70;1.60;;;13.00;99.90;;;;;;5073292;28;20941;-47
2022/09/11 05:34:27;;;;;;;2.00;0.90;;;12.90;99.90;;;;;;5073431;28;20443;-47
2022/09/11 05:36:56;;;;;;;7.93;1.50;;;12.80;99.90;;;;;;5072490;28;20464;-48
2022/09/11 05:39:24;;;;;;;1.63;1.05;;;12.80;99.90;;;;;;5072558;28;20944;-47
2022/09/11 05:41:52;;;;;;;10.77;1.23;;;12.40;99.90;;;;;;5073483;28;20216;-47
2022/09/11 05:44:19;;;;;;;2.37;1.10;;;12.20;99.90;;;;;;5073063;28;20440;-47
2022/09/11 05:46:47;;;;;;;2.10;1.60;;;12.30;99.90;;;;;;5072701;28;21070;-49
2022/09/11 05:49:14;;;;;;;2.20;2.00;;;12.30;99.90;;;;;;5072268;28;20539;-47
2022/09/11 05:51:41;;;;;;;4.65;2.08;;;12.20;99.90;;;;;;5073368;28;20457;-48
2022/09/11 05:54:08;;;;;;;3.47;1.90;;;12.40;99.90;;;;;;5073161;28;20251;-47
2022/09/11 05:56:36;;;;;;;2.50;1.40;;;12.50;99.90;;;;;;5073126;28;20886;-47
2022/09/11 05:59:04;;;;;;;3.42;1.50;;;12.60;99.90;;;;;;5072390;28;20488;-47
2022/09/11 06:01:31;;;;;;;2.03;0.93;;;12.50;99.90;;;;;;5073230;28;20543;-47
2022/09/11 06:03:58;;;;;;;1.50;1.00;;;12.70;99.90;;;;;;5072915;28;20490;-47
2022/09/11 06:06:25;;;;;;;2.13;1.57;;;12.80;99.90;;;;;;5072838;28;20889;-48
2022/09/11 06:08:52;;;;;;;2.93;0.90;;;12.90;99.90;;;;;;5070528;28;20512;-49
2022/09/11 06:11:20;;;;;;;1.53;1.13;;;13.10;99.90;;;;;;5072935;28;20506;-48
2022/09/11 06:13:49;;;;;;;2.70;1.02;;;13.20;99.90;;;;;;5072411;28;20472;-47
2022/09/11 06:16:18;;;;;;;2.77;0.73;;;13.20;99.90;;;;;;5072594;28;20218;-49
2022/09/11 06:18:47;;;;;;;1.90;1.50;;;13.30;99.90;;;;;;5072046;28;20499;-48
2022/09/11 06:21:18;;;;;;;3.60;2.20;;;13.30;99.90;;;;;;5072581;28;20948;-47
2022/09/11 06:23:46;;;;;;;2.70;2.40;;;13.30;99.90;;;;;;5073069;28;20472;-47
2022/09/11 06:26:15;;;;;;;4.03;2.40;;;13.40;99.90;;;;;;5072261;28;20510;-47
2022/09/11 06:28:42;;;;;;;1.97;1.60;;;13.30;99.90;;;;;;5071595;28;20476;-48
2022/09/11 06:31:15;;;;;;;3.60;1.90;;;13.40;99.90;;;;;;5072083;28;20432;-49
2022/09/11 06:33:42;;;;;;;1.90;1.30;;;13.30;99.90;;;;;;5072501;28;20453;-47
2022/09/11 06:36:11;;;;;;;1.40;1.13;;;13.40;99.90;;;;;;5072282;28;20472;-49
2022/09/11 06:38:38;;;;;;;3.37;1.50;;;13.40;99.90;;;;;;5071963;28;20478;-47
2022/09/11 06:41:07;;;;;;;1.70;1.60;;;13.40;99.90;;;;;;5072116;28;20500;-47
2022/09/11 06:43:34;;;;;;;4.73;1.50;;;13.60;99.90;;;;;;5071875;28;20429;-47
2022/09/11 06:46:05;;;;;;;2.07;1.70;;;13.60;99.90;;;;;;5071400;28;20886;-47
2022/09/11 06:48:33;;;;;;;2.35;1.67;;;13.70;99.90;;;;;;5071134;28;20515;-47
2022/09/11 06:51:03;;;;;;;1.70;1.20;;;13.70;99.90;;;;;;5071586;28;20681;-49
2022/09/11 06:53:30;;;;;;;2.43;1.47;;;13.70;99.90;;;;;;5071943;28;20547;-47
2022/09/11 06:56:00;;;;;;;2.37;1.50;;;13.70;99.90;;;;;;5071943;28;20492;-47
2022/09/11 06:58:27;;;;;;;2.07;1.20;;;13.70;99.90;;;;;;5072039;28;20551;-47
2022/09/11 07:00:55;;;;;;;2.90;1.30;;;13.70;99.90;;;;;;5071211;28;20511;-47
2022/09/11 07:03:22;;;;;;;3.70;1.60;;;13.70;99.90;;;;;;5071823;28;20436;-47
2022/09/11 07:05:50;;;;;;;2.73;1.50;;;13.70;99.90;;;;;;5071672;28;21075;-47
2022/09/11 07:08:17;;;;;;;2.10;1.50;;;13.80;99.90;;;;;;5070084;28;20478;-51
2022/09/11 07:10:44;;;;;;;2.58;1.65;;;13.80;99.90;;;;;;5071061;28;20210;-48
2022/09/11 07:13:11;;;;;;;2.90;1.40;;;13.70;99.90;;;;;;5071780;28;20225;-49
2022/09/11 07:15:38;;;;;;;1.50;1.00;;;13.50;99.90;;;;;;5071623;28;20499;-48
2022/09/11 07:18:05;;;;;;;3.97;1.53;;;13.50;99.90;;;;;;5071336;28;20436;-47
2022/09/11 07:20:32;;;;;;;3.40;1.80;;;13.40;99.90;;;;;;5070958;28;20506;-48
2022/09/11 07:23:01;;;;;;;1.95;1.17;;;13.50;99.90;;;;;;5071181;28;20437;-47
2022/09/11 07:25:28;;;;;;;2.33;1.90;;;13.50;99.90;;;;;;5071452;28;20242;-47
2022/09/11 07:27:55;;;;;;;2.93;1.17;;;13.20;99.90;;;;;;5071239;28;20545;-47
2022/09/11 07:30:21;;;;;;;1.80;1.50;;;12.90;99.90;;;;;;5071375;28;20495;-48
2022/09/11 07:32:49;;;;;;;2.20;1.47;;;12.80;99.90;;;;;;5071739;28;20510;-47
2022/09/11 07:35:20;;;;;;;2.20;1.70;;;13.00;99.90;;;;;;5072308;28;20468;-48
2022/09/11 07:37:47;;;;;;;2.33;1.20;;;13.30;99.90;;;;;;5071550;28;20443;-50
2022/09/11 07:40:16;;;;;;;3.27;1.43;;;13.40;99.90;;;;;;5070471;28;20543;-47
2022/09/11 07:42:43;;;;;;;2.80;1.03;;;13.50;99.90;;;;;;5071372;28;20533;-48
2022/09/11 07:45:11;;;;;;;2.03;1.70;;;13.60;99.90;;;;;;5070259;28;20514;-48
2022/09/11 07:47:38;;;;;;;1.83;1.53;;;13.60;99.90;;;;;;5070598;28;20475;-50
2022/09/11 07:50:06;;;;;;;2.17;1.80;;;13.40;99.90;;;;;;5070451;28;20482;-47
2022/09/11 07:52:33;;;;;;;2.27;1.77;;;13.50;99.90;;;;;;5071131;28;20476;-47
2022/09/11 07:55:02;;;;;;;2.67;1.40;;;13.60;99.90;;;;;;5071018;28;20499;-49
2022/09/11 07:57:31;;;;;;;2.90;1.57;;;13.40;99.90;;;;;;5071360;28;20467;-47
2022/09/11 07:59:59;;;;;;;2.93;1.60;;;13.50;99.90;;;;;;5069996;28;20513;-47
2022/09/11 08:02:26;;;;;;;2.63;2.40;;;13.50;99.90;;;;;;5070901;28;20437;-48
2022/09/11 08:04:53;;;;;;;4.43;2.20;;;13.50;99.90;;;;;;5070707;28;20464;-48
2022/09/11 08:07:22;;;;;;;2.47;2.00;;;13.60;99.90;;;;;;5070921;28;20477;-47
2022/09/11 08:09:48;;;;;;;2.40;1.50;;;13.60;99.90;;;;;;5068618;28;20440;-47
2022/09/11 08:12:16;;;;;;;2.60;1.50;;;13.70;99.90;;;;;;5070862;28;20247;-48
2022/09/11 08:14:44;;;;;;;3.00;1.90;;;13.70;99.90;;;;;;5070859;28;20452;-47
2022/09/11 08:17:11;;;;;;;3.03;1.40;;;13.80;99.90;;;;;;5070574;28;20198;-48
2022/09/11 08:19:38;;;;;;;2.47;1.77;;;13.80;99.90;;;;;;5070102;28;20480;-47
2022/09/11 08:22:05;;;;;;;2.10;1.20;;;13.30;99.90;;;;;;5071078;28;20441;-48
2022/09/11 08:24:32;;;;;;;1.97;1.60;;;13.30;99.90;;;;;;5070843;28;20578;-49
2022/09/11 08:26:59;;;;;;;2.03;1.63;;;13.40;99.90;;;;;;5070756;28;20509;-47
2022/09/11 08:29:26;;;;;;;2.23;1.67;;;13.50;99.90;;;;;;5069780;28;20473;-49
2022/09/11 08:31:54;;;;;;;1.87;1.30;;;13.60;99.90;;;;;;5070722;28;20454;-47
2022/09/11 08:34:21;;;;;;;2.60;1.37;;;13.60;99.90;;;;;;5070602;28;20467;-48
2022/09/11 08:36:50;;;;;;;1.90;1.40;;;13.50;99.90;;;;;;5070517;28;20541;-47
2022/09/11 08:39:17;;;;;;;2.67;1.43;;;13.50;99.90;;;;;;5069848;28;20472;-48
2022/09/11 08:41:48;;;;;;;5.27;1.57;;;13.70;99.90;;;;;;5070381;28;20968;-47
2022/09/11 08:44:23;;;;;;;2.47;1.40;;;13.80;99.90;;;;;;5070625;28;20482;-47
2022/09/11 08:46:55;;;;;;;1.30;1.00;;;13.70;99.90;;;;;;5070087;28;20488;-48
2022/09/11 08:49:25;;;;;;;2.63;1.60;;;13.50;99.90;;;;;;5069532;28;20495;-47
2022/09/11 08:51:56;;;;;;;2.20;1.50;;;13.30;99.90;;;;;;5070924;28;20444;-47
2022/09/11 08:54:27;;;;;;;2.07;1.50;;;13.40;99.90;;;;;;5070459;28;20922;-48
2022/09/11 08:57:12;;;;;;;2.67;1.30;;;13.40;99.90;;;;;;5070291;28;20457;-49
2022/09/11 09:00:07;;;;;;;1.83;1.53;;;13.60;99.90;;;;;;5069712;28;20440;-48
2022/09/11 09:02:50;;;;;;;8.83;2.77;;;13.80;99.90;;;;;;5070285;28;20425;-49
2022/09/11 09:05:27;;;;;;;1.83;1.23;;;13.60;99.90;;;;;;5070154;28;20505;-47
2022/09/11 09:08:05;;;;;;;7.90;6.00;;;13.50;99.90;;;;;;5068664;28;20483;-50
2022/09/11 09:10:47;;;;;;;17.77;15.93;;;13.90;99.90;;;;;;5069712;28;20428;-48
2022/09/11 09:13:29;;;;;;;6.40;5.80;;;13.90;99.90;;;;;;5072959;28;20436;-47
2022/09/11 09:16:08;;;;;;;3.87;1.90;;;14.00;99.90;;;;;;5073798;28;20899;-47
2022/09/11 09:18:41;;;;;;;1.70;1.50;;;14.20;99.90;;;;;;5073673;28;20444;-50
2022/09/11 09:21:14;;;;;;;2.13;1.60;;;14.30;99.90;;;;;;5073728;28;20801;-48
2022/09/11 09:23:45;;;;;;;1.90;1.20;;;14.40;99.90;;;;;;5073862;28;20540;-47
2022/09/11 09:26:17;;;;;;;1.77;1.20;;;14.50;99.90;;;;;;5073657;28;20468;-47
2022/09/11 09:28:46;;;;;;;2.37;1.00;;;14.50;99.90;;;;;;5073234;28;20475;-48
2022/09/11 09:31:19;;;;;;;1.50;1.03;;;14.60;99.90;;;;;;5073745;28;20476;-49
2022/09/11 09:33:52;;;;;;;1.35;0.98;;;14.70;99.90;;;;;;5073456;28;20914;-50
2022/09/11 09:36:21;;;;;;;1.73;1.10;;;14.70;99.90;;;;;;5073350;28;20222;-49
2022/09/11 09:38:49;;;;;;;1.65;1.38;;;14.60;99.90;;;;;;5072453;28;20442;-50
2022/09/11 09:41:53;;;;;;;1.40;0.90;;;14.60;99.90;;;;;;5073539;28;20674;-48
2022/09/11 09:44:29;;;;;;;2.20;1.50;;;14.70;99.90;;;;;;5073723;28;20815;-49
2022/09/11 09:46:57;;;;;;;4.72;1.67;;;14.40;99.90;;;;;;5072884;28;20447;-48
2022/09/11 09:49:29;;;;;;;2.20;1.37;;;14.00;99.90;;;;;;5072357;28;20210;-48
2022/09/11 09:51:58;;;;;;;2.20;1.43;;;14.00;99.90;;;;;;5073307;28;20448;-48
2022/09/11 09:54:29;;;;;;;4.03;1.63;;;14.20;99.90;;;;;;5073345;28;20925;-48
2022/09/11 09:57:01;;;;;;;1.80;1.50;;;14.40;99.90;;;;;;5073258;28;20525;-49
2022/09/11 09:59:34;;;;;;;1.77;1.17;;;14.60;99.90;;;;;;5072644;28;20440;-50
2022/09/11 10:02:01;;;;;;;1.60;1.30;;;14.70;99.90;;;;;;5073242;28;20527;-49
2022/09/11 10:04:30;;;;;;;1.87;1.57;;;14.80;99.90;;;;;;5073038;28;20445;-51
2022/09/11 10:07:09;;;;;;;2.67;1.57;;;14.90;99.90;;;;;;5072926;28;20456;-49
2022/09/11 10:09:44;;;;;;;1.73;1.13;;;14.90;99.90;;;;;;5070774;28;20467;-48
2022/09/11 10:12:23;;;;;;;2.07;1.53;;;14.90;99.90;;;;;;5073080;28;20197;-49
2022/09/11 10:14:53;;;;;;;2.93;1.20;;;15.00;99.90;;;;;;5072900;28;20441;-48
2022/09/11 10:17:22;;;;;;;2.57;2.03;;;15.10;99.90;;;;;;5072434;28;20922;-48
2022/09/11 10:19:51;;;;;;;2.20;1.53;;;15.30;99.90;;;;;;5072353;28;20471;-48
2022/09/11 10:22:25;;;;;;;2.13;1.30;;;15.30;99.90;;;;;;5073159;28;20490;-49
2022/09/11 10:24:59;;;;;;;3.37;1.60;;;14.90;99.90;;;;;;5073074;28;20468;-48
2022/09/11 10:27:27;;;;;;;1.50;1.20;;;14.90;99.90;;;;;;5074844;28;20441;-49
2022/09/11 10:29:54;;;;;;;1.40;0.70;;;14.80;99.90;;;;;;5071909;28;20518;-48
2022/09/11 10:32:23;;;;;;;1.30;0.90;;;15.00;99.90;;;;;;5072635;28;20229;-48
2022/09/11 10:34:52;;;;;;;1.40;0.90;;;14.90;99.90;;;;;;5072021;28;20432;-49
2022/09/11 10:37:25;;;;;;;1.80;1.40;;;14.90;99.90;;;;;;5072328;28;20468;-50
2022/09/11 10:39:53;;;;;;;2.57;1.43;;;14.80;99.90;;;;;;5071850;28;20469;-51
2022/09/11 10:42:24;;;;;;;1.50;1.20;;;14.90;99.90;;;;;;5072166;28;20464;-48
2022/09/11 10:44:53;;;;;;;1.90;1.50;;;15.10;99.90;;;;;;5071866;28;20433;-48
2022/09/11 10:47:25;;;;;;;2.20;1.57;;;14.90;99.90;;;;;;5071516;28;20482;-49
2022/09/11 10:50:19;;;;;;;1.85;1.30;;;14.80;99.90;;;;;;5071178;28;20523;-49
2022/09/11 10:52:59;;;;;;;6.33;1.43;;;14.90;99.90;;;;;;5072204;28;20202;-48
2022/09/11 10:55:29;;;;;;;1.87;1.40;;;15.10;99.90;;;;;;5072024;28;20472;-49
2022/09/11 10:58:04;;;;;;;3.97;1.80;;;15.10;99.90;;;;;;5071818;28;20475;-49
2022/09/11 11:00:33;;;;;;;1.93;1.27;;;15.30;99.90;;;;;;5071221;28;20444;-49
2022/09/11 11:03:06;;;;;;;2.80;1.27;;;15.50;99.90;;;;;;5071847;28;20475;-48
2022/09/11 11:05:44;;;;;;;2.60;1.50;;;15.50;99.90;;;;;;5071893;28;20559;-49
2022/09/11 11:08:41;;;;;;;1.95;1.33;;;15.70;99.90;;;;;;5070933;28;20957;-48
2022/09/11 11:11:21;;;;;;;1.70;1.50;;;15.60;99.90;;;;;;5064828;28;20210;-49
2022/09/11 11:14:12;;;;;;;1.73;0.97;;;15.20;99.90;;;;;;5071347;28;20851;-48
2022/09/11 11:16:51;;;;;;;1.57;1.00;;;15.30;99.90;;;;;;5071738;28;20465;-48
2022/09/11 11:19:43;;;;;;;1.20;1.00;;;15.40;99.90;;;;;;5070975;28;20454;-49
2022/09/11 11:22:23;;;;;;;2.17;1.07;;;15.20;99.90;;;;;;5070031;28;20541;-48
2022/09/11 11:25:05;;;;;;;4.10;1.00;;;15.40;99.90;;;;;;5071266;28;20452;-49
2022/09/11 11:27:50;;;;;;;2.20;1.10;;;15.60;99.90;;;;;;5071497;28;20482;-49
2022/09/11 11:30:18;;;;;;;3.53;1.60;;;15.60;99.90;;;;;;5070770;28;20507;-48
2022/09/11 11:33:16;;;;;;;1.97;1.10;;;15.70;99.90;;;;;;5071428;28;20480;-49
2022/09/11 11:35:52;;;;;;;1.20;0.93;;;15.80;99.90;;;;;;5070522;28;20456;-48
2022/09/11 11:38:26;;;;;;;2.00;1.70;;;15.80;99.90;;;;;;5071267;28;20913;-48
2022/09/11 11:41:00;;;;;;;1.80;1.20;;;15.80;99.90;;;;;;5070264;28;20431;-48
2022/09/11 11:43:29;;;;;;;1.40;1.00;;;15.80;99.90;;;;;;5071343;28;20455;-48
2022/09/11 11:46:01;;;;;;;1.77;1.30;;;16.00;99.90;;;;;;5070449;28;20448;-50
2022/09/11 11:48:35;;;;;;;2.27;1.93;;;16.10;99.90;;;;;;5070992;28;20448;-49
2022/09/11 11:51:06;;;;;;;1.60;1.50;;;16.10;99.90;;;;;;5070814;28;21028;-48
2022/09/11 11:53:38;;;;;;;2.10;1.90;;;16.10;99.90;;;;;;5071249;28;20605;-45
2022/09/11 11:56:13;;;;;;;1.40;1.00;;;16.10;99.90;;;;;;5070998;28;20500;-48
2022/09/11 11:58:49;;;;;;;1.55;1.10;;;16.20;99.90;;;;;;5070846;28;20442;-45
2022/09/11 12:01:22;;;;;;;1.83;1.20;;;16.20;99.90;;;;;;5071078;28;20201;-48
2022/09/11 12:03:55;;;;;;;1.40;0.90;;;16.20;99.90;;;;;;5070950;28;20437;-48
2022/09/11 12:06:22;;;;;;;2.20;1.50;;;16.10;99.90;;;;;;5070924;28;20903;-48
2022/09/11 12:08:51;;;;;;;1.40;0.93;;;16.00;99.90;;;;;;5069086;28;20570;-50
2022/09/11 12:11:28;;;;;;;3.73;1.47;;;15.70;99.90;;;;;;5071006;28;20783;-49
2022/09/11 12:13:55;;;;;;;2.40;1.53;;;15.30;99.90;;;;;;5070855;28;20456;-48
2022/09/11 12:16:27;;;;;;;1.50;1.10;;;15.40;99.90;;;;;;5070964;28;20465;-48
2022/09/11 12:19:06;;;;;;;1.60;1.00;;;15.60;99.90;;;;;;5070157;28;20444;-49
2022/09/11 12:21:36;;;;;;;2.57;1.10;;;15.50;99.90;;;;;;5070810;28;20472;-48
2022/09/11 12:24:21;;;;;;;3.53;1.23;;;15.20;99.90;;;;;;5070907;28;20472;-48
2022/09/11 12:27:27;;;;;;;1.70;1.10;;;15.20;99.90;;;;;;5070679;28;20530;-48
2022/09/11 12:29:56;;;;;;;1.48;0.85;;;15.30;99.90;;;;;;5069570;28;20468;-48
2022/09/11 12:32:43;;;;;;;1.87;1.00;;;15.60;99.90;;;;;;5070683;28;20194;-51
2022/09/11 12:35:29;;;;;;;1.73;1.30;;;15.80;99.90;;;;;;5068836;28;20475;-48
2022/09/11 12:38:04;;;;;;;1.50;1.30;;;16.10;99.90;;;;;;5069164;28;20525;-48
2022/09/11 12:40:38;;;;;;;2.97;1.03;;;16.30;99.90;;;;;;5069887;28;20448;-48
2022/09/11 12:43:26;;;;;;;3.60;0.95;;;16.60;99.90;;;;;;5070789;28;20623;-48
2022/09/11 12:45:53;;;;;;;1.43;0.97;;;16.80;99.90;;;;;;5069914;28;20257;-48
2022/09/11 12:48:24;;;;;;;1.53;0.97;;;16.80;99.90;;;;;;5073556;28;20498;-51
2022/09/11 12:50:55;;;;;;;1.90;1.10;;;16.90;99.90;;;;;;5073759;28;20558;-48
2022/09/11 12:53:26;;;;;;;2.23;0.83;;;16.90;99.90;;;;;;5074357;28;20436;-48
2022/09/11 12:55:58;;;;;;;1.43;0.83;;;16.80;99.90;;;;;;5073987;28;20565;-49
2022/09/11 12:58:34;;;;;;;5.27;1.30;;;16.70;99.90;;;;;;5074309;28;20508;-48
2022/09/11 13:01:12;;;;;;;2.07;1.13;;;16.80;99.90;;;;;;5073718;28;20501;-48
2022/09/11 13:03:48;;;;;;;1.23;0.70;;;16.80;99.90;;;;;;5073858;28;20456;-48
2022/09/11 13:06:16;;;;;;;1.83;1.20;;;16.90;99.90;;;;;;5074599;28;20459;-51